createdAt,value
2018-12-10T00:02:28.022Z,0.90
2018-12-10T00:04:57.329Z,1.10
2018-12-10T00:07:26.117Z,0.93
2018-12-10T00:09:55.233Z,0.50
2018-12-10T00:12:23.578Z,0.67
2018-12-10T00:14:51.991Z,0.67
2018-12-10T00:17:20.342Z,0.70
2018-12-10T00:19:48.782Z,0.90
2018-12-10T00:22:17.162Z,1.30
2018-12-10T00:24:46.250Z,0.77
2018-12-10T00:27:15.174Z,1.00
2018-12-10T00:29:44.121Z,0.80
2018-12-10T00:32:12.464Z,1.07
2018-12-10T00:34:40.944Z,0.97
2018-12-10T00:37:09.970Z,0.87
2018-12-10T00:39:38.436Z,1.30
2018-12-10T00:42:07.050Z,1.13
2018-12-10T00:44:35.491Z,1.20
2018-12-10T00:47:04.325Z,1.70
2018-12-10T00:49:33.278Z,1.60
2018-12-10T00:52:01.694Z,1.90
2018-12-10T00:54:30.067Z,2.27
2018-12-10T00:56:59.315Z,2.20
2018-12-10T00:59:27.730Z,1.90
2018-12-10T01:01:56.430Z,2.37
2018-12-10T01:04:24.794Z,2.30
2018-12-10T01:06:53.722Z,1.73
2018-12-10T01:09:22.082Z,1.90
2018-12-10T01:11:51.684Z,1.93
2018-12-10T01:14:20.056Z,2.30
2018-12-10T01:16:49.532Z,2.00
2018-12-10T01:19:18.324Z,2.67
2018-12-10T01:21:47.204Z,2.90
2018-12-10T01:24:15.607Z,2.70
2018-12-10T01:26:43.987Z,2.47
2018-12-10T01:29:12.364Z,2.13
2018-12-10T01:31:40.709Z,2.93
2018-12-10T01:34:09.112Z,3.17
2018-12-10T01:36:37.496Z,2.67
2018-12-10T01:39:06.516Z,3.50
2018-12-10T01:41:35.409Z,2.70
2018-12-10T01:44:04.490Z,2.30
2018-12-10T01:46:32.859Z,2.70
2018-12-10T01:49:01.273Z,2.33
2018-12-10T01:51:29.671Z,2.10
2018-12-10T01:53:58.392Z,2.97
2018-12-10T01:56:27.541Z,2.13
2018-12-10T01:58:56.151Z,1.63
2018-12-10T02:01:24.495Z,1.53
2018-12-10T02:03:52.862Z,1.10
2018-12-10T02:06:21.215Z,0.73
2018-12-10T02:08:49.561Z,0.90
2018-12-10T02:11:18.335Z,0.60
2018-12-10T02:13:46.968Z,0.77
2018-12-10T02:16:15.322Z,1.03
2018-12-10T02:18:43.677Z,1.60
2018-12-10T02:21:12.067Z,1.60
2018-12-10T02:23:40.568Z,1.40
2018-12-10T02:26:08.910Z,1.00
2018-12-10T02:28:42.682Z,1.33
2018-12-10T02:31:11.031Z,1.50
2018-12-10T02:33:39.409Z,1.40
2018-12-10T02:36:07.780Z,1.50
2018-12-10T02:38:36.155Z,1.70
2018-12-10T02:41:05.210Z,1.40
2018-12-10T02:43:33.604Z,2.07
2018-12-10T02:46:01.948Z,1.73
2018-12-10T02:48:30.302Z,1.40
2018-12-10T02:50:58.702Z,1.83
2018-12-10T02:53:27.083Z,1.40
2018-12-10T02:55:55.413Z,1.10
2018-12-10T02:58:23.757Z,1.43
2018-12-10T03:00:52.121Z,1.20
2018-12-10T03:03:20.860Z,1.30
2018-12-10T03:05:49.246Z,1.30
2018-12-10T03:08:19.085Z,1.40
2018-12-10T03:10:47.428Z,0.90
2018-12-10T03:13:15.799Z,1.40
2018-12-10T03:15:44.162Z,1.40
2018-12-10T03:18:12.873Z,1.77
2018-12-10T03:20:41.257Z,1.60
2018-12-10T03:23:10.121Z,1.37
2018-12-10T03:25:38.555Z,1.90
2018-12-10T03:28:06.943Z,1.87
2018-12-10T03:30:35.298Z,1.90
2018-12-10T03:33:04.084Z,1.80
2018-12-10T03:35:33.121Z,1.43
2018-12-10T03:38:01.860Z,2.17
2018-12-10T03:40:31.179Z,1.63
2018-12-10T03:43:00.566Z,2.37
2018-12-10T03:45:28.932Z,2.10
2018-12-10T03:49:27.844Z,2.60
2018-12-10T03:51:56.232Z,2.80
2018-12-10T03:54:25.621Z,2.70
2018-12-10T03:56:54.018Z,2.97
2018-12-10T03:59:22.360Z,3.50
2018-12-10T04:01:51.716Z,2.50
2018-12-10T04:04:20.102Z,2.57
2018-12-10T04:06:48.482Z,2.80
2018-12-10T04:09:20.943Z,2.43
2018-12-10T04:11:49.638Z,2.57
2018-12-10T04:14:18.516Z,2.20
2018-12-10T04:16:47.315Z,2.83
2018-12-10T04:19:16.038Z,2.10
2018-12-10T04:21:44.673Z,2.27
2018-12-10T04:24:13.306Z,2.53
2018-12-10T04:26:41.915Z,2.13
2018-12-10T04:29:10.266Z,2.30
2018-12-10T04:31:38.667Z,2.30
2018-12-10T04:34:07.435Z,2.83
2018-12-10T04:36:35.835Z,2.17
2018-12-10T04:39:06.467Z,1.93
2018-12-10T04:41:34.830Z,2.20
2018-12-10T04:44:03.203Z,2.50
2018-12-10T04:46:31.959Z,2.17
2018-12-10T04:49:00.553Z,2.17
2018-12-10T04:51:28.906Z,2.27
2018-12-10T04:53:57.316Z,3.23
2018-12-10T04:56:27.184Z,2.20
2018-12-10T04:58:55.547Z,2.53
2018-12-10T05:01:23.919Z,2.40
2018-12-10T05:03:52.285Z,2.43
2018-12-10T05:06:20.683Z,1.80
2018-12-10T05:08:49.471Z,2.50
2018-12-10T05:11:17.827Z,2.50
2018-12-10T05:13:48.271Z,2.30
2018-12-10T05:16:16.631Z,2.23
2018-12-10T05:18:45.704Z,2.83
2018-12-10T05:21:14.717Z,2.30
2018-12-10T05:23:43.153Z,2.23
2018-12-10T05:26:11.509Z,2.40
2018-12-10T05:28:40.169Z,2.87
2018-12-10T05:31:08.535Z,2.47
2018-12-10T05:33:36.881Z,2.67
2018-12-10T05:36:05.241Z,2.10
2018-12-10T05:38:33.607Z,2.93
2018-12-10T05:41:01.955Z,2.53
2018-12-10T05:43:30.325Z,2.43
2018-12-10T05:45:59.002Z,2.60
2018-12-10T05:48:27.443Z,2.17
2018-12-10T05:50:56.168Z,1.90
2018-12-10T05:53:25.949Z,2.23
2018-12-10T05:55:54.341Z,2.10
2018-12-10T05:58:23.747Z,2.60
2018-12-10T06:00:52.812Z,1.97
2018-12-10T06:03:21.548Z,2.20
2018-12-10T06:05:50.858Z,1.97
2018-12-10T06:08:19.435Z,2.07
2018-12-10T06:10:48.707Z,3.40
2018-12-10T06:13:17.077Z,2.30
2018-12-10T06:15:45.462Z,2.60
2018-12-10T06:18:13.848Z,2.37
2018-12-10T06:20:42.215Z,2.60
2018-12-10T06:23:10.722Z,2.70
2018-12-10T06:25:39.650Z,2.97
2018-12-10T06:28:08.043Z,2.80
2018-12-10T06:30:36.798Z,2.60
2018-12-10T06:33:05.157Z,2.63
2018-12-10T06:35:33.892Z,2.80
2018-12-10T06:38:02.275Z,3.20
2018-12-10T06:40:30.768Z,2.63
2018-12-10T06:42:59.241Z,2.27
2018-12-10T06:45:28.574Z,2.87
2018-12-10T06:47:59.408Z,2.67
2018-12-10T06:50:27.772Z,2.30
2018-12-10T06:54:25.348Z,2.23
2018-12-10T06:56:54.520Z,2.03
2018-12-10T07:00:52.356Z,2.43
2018-12-10T07:03:20.697Z,1.93
2018-12-10T07:05:49.488Z,1.93
2018-12-10T07:08:17.859Z,2.63
2018-12-10T07:10:46.853Z,2.63
2018-12-10T07:13:15.966Z,2.30
2018-12-10T07:15:44.302Z,2.30
2018-12-10T07:18:12.678Z,2.13
2018-12-10T07:20:41.016Z,2.13
2018-12-10T07:23:09.382Z,1.93
2018-12-10T07:25:42.361Z,2.37
2018-12-10T07:28:11.685Z,2.83
2018-12-10T07:30:41.530Z,3.43
2018-12-10T07:33:10.517Z,2.30
2018-12-10T07:35:39.303Z,1.87
2018-12-10T07:38:07.637Z,2.03
2018-12-10T07:47:23.406Z,2.03
2018-12-10T07:49:51.752Z,2.80
2018-12-10T07:52:20.112Z,2.10
2018-12-10T07:54:48.902Z,2.47
2018-12-10T07:57:17.534Z,2.77
2018-12-10T07:59:50.404Z,2.30
2018-12-10T08:02:19.355Z,2.30
2018-12-10T08:04:48.442Z,2.23
2018-12-10T08:07:17.252Z,2.80
2018-12-10T08:09:45.930Z,1.97
2018-12-10T08:12:14.998Z,2.80
2018-12-10T08:14:43.457Z,1.70
2018-12-10T08:17:11.809Z,2.50
2018-12-10T08:19:41.607Z,2.50
2018-12-10T08:22:10.417Z,2.17
2018-12-10T08:24:40.007Z,1.73
2018-12-10T08:27:09.736Z,2.80
2018-12-10T08:29:38.420Z,2.03
2018-12-10T08:32:06.853Z,1.80
2018-12-10T08:37:06.323Z,1.60
2018-12-10T08:39:15.183Z,1.60
2018-12-10T08:39:35.537Z,2.03
2018-12-10T08:42:05.536Z,3.23
2018-12-10T08:44:38.683Z,1.73
2018-12-10T08:47:15.922Z,2.00
2018-12-10T08:49:40.558Z,1.60
2018-12-10T08:52:20.838Z,1.80
2018-12-10T08:54:50.783Z,2.63
2018-12-10T08:57:22.328Z,1.80
2018-12-10T08:59:55.281Z,2.20
2018-12-10T09:02:25.404Z,1.90
2018-12-10T09:04:59.452Z,2.10
2018-12-10T09:07:27.838Z,2.37
2018-12-10T09:09:57.470Z,1.90
2018-12-10T09:12:25.833Z,2.00
2018-12-10T09:14:54.491Z,1.90
2018-12-10T09:17:23.631Z,2.10
2018-12-10T09:19:52.804Z,2.33
2018-12-10T09:22:22.223Z,2.40
2018-12-10T09:24:57.169Z,2.30
2018-12-10T09:27:27.151Z,2.07
2018-12-10T09:30:04.032Z,2.13
2018-12-10T09:32:34.678Z,2.50
2018-12-10T09:35:05.542Z,1.90
2018-12-10T09:37:33.962Z,1.47
2018-12-10T09:40:02.791Z,1.90
2018-12-10T09:42:31.193Z,1.77
2018-12-10T09:45:00.459Z,1.17
2018-12-10T09:47:29.606Z,1.97
2018-12-10T09:49:58.484Z,1.80
2018-12-10T09:52:27.203Z,1.20
2018-12-10T09:54:57.556Z,1.87
2018-12-10T09:57:27.026Z,1.63
2018-12-10T09:59:57.774Z,1.97
2018-12-10T10:02:27.367Z,1.90
2018-12-10T10:04:56.706Z,1.70
2018-12-10T10:07:28.569Z,2.37
2018-12-10T10:09:57.832Z,1.43
2018-12-10T10:12:31.828Z,1.77
2018-12-10T10:15:02.352Z,2.10
2018-12-10T10:17:30.729Z,1.43
2018-12-10T10:19:59.336Z,1.80
2018-12-10T10:22:28.905Z,1.90
2018-12-10T10:24:57.276Z,1.20
2018-12-10T10:27:25.652Z,1.20
2018-12-10T10:29:55.314Z,1.13
2018-12-10T10:32:23.698Z,1.10
2018-12-10T10:34:52.982Z,1.80
2018-12-10T10:37:22.583Z,1.70
2018-12-10T10:39:57.357Z,0.90
2018-12-10T10:42:29.559Z,0.77
2018-12-10T10:44:58.884Z,0.70
2018-12-10T10:47:27.627Z,0.97
2018-12-10T10:52:33.642Z,1.47
2018-12-10T10:55:05.567Z,0.87
2018-12-10T10:57:36.415Z,0.53
2018-12-10T11:00:09.897Z,1.10
2018-12-10T11:02:46.531Z,0.83
2018-12-10T11:05:16.158Z,0.80
2018-12-10T11:07:47.059Z,0.90
2018-12-10T11:10:17.082Z,0.80
2018-12-10T11:12:52.992Z,0.83
2018-12-10T11:16:25.473Z,1.20
2018-12-10T11:18:55.429Z,0.57
2018-12-10T11:21:24.465Z,0.90
2018-12-10T11:23:52.858Z,1.10
2018-12-10T11:26:21.250Z,0.73
2018-12-10T11:28:50.525Z,1.00
2018-12-10T11:31:19.190Z,0.70
2018-12-10T11:34:50.996Z,0.60
2018-12-10T11:37:19.772Z,0.63
2018-12-10T11:39:49.626Z,0.87
2018-12-10T11:43:48.106Z,0.80
2018-12-10T11:46:17.232Z,1.00
2018-12-10T11:48:45.594Z,0.90
2018-12-10T11:51:14.918Z,1.17
2018-12-10T11:53:43.274Z,0.90
2018-12-10T11:56:12.410Z,1.00
2018-12-10T11:58:40.858Z,1.17
2018-12-10T12:01:09.266Z,1.07
2018-12-10T12:03:37.673Z,1.43
2018-12-10T12:06:07.150Z,1.67
2018-12-10T12:08:36.531Z,1.20
2018-12-10T12:11:04.913Z,1.30
2018-12-10T12:13:33.273Z,0.70
2018-12-10T12:16:01.645Z,1.47
2018-12-10T12:18:32.049Z,0.93
2018-12-10T12:21:01.976Z,1.40
2018-12-10T12:23:30.373Z,1.20
2018-12-10T12:25:58.753Z,1.17
2018-12-10T12:28:27.550Z,2.00
2018-12-10T12:30:56.924Z,1.27
2018-12-10T12:33:26.427Z,1.03
2018-12-10T12:35:56.811Z,1.37
2018-12-10T12:38:25.806Z,0.80
2018-12-10T12:40:54.584Z,1.20
2018-12-10T12:43:23.030Z,1.03
2018-12-10T12:45:53.900Z,0.90
2018-12-10T12:48:23.692Z,1.03
2018-12-10T12:50:52.331Z,0.97
2018-12-10T12:53:21.607Z,0.80
2018-12-10T12:55:50.610Z,0.63
2018-12-10T12:58:19.191Z,1.07
2018-12-10T13:00:48.382Z,0.80
2018-12-10T13:03:16.766Z,0.90
2018-12-10T13:05:45.112Z,0.63
2018-12-10T13:08:14.180Z,1.03
2018-12-10T13:10:42.550Z,0.70
2018-12-10T13:13:10.904Z,0.57
2018-12-10T13:15:39.274Z,0.70
2018-12-10T13:18:08.676Z,0.50
2018-12-10T13:20:37.046Z,0.80
2018-12-10T13:23:05.389Z,1.00
2018-12-10T13:25:33.730Z,1.03
2018-12-10T13:28:02.093Z,0.97
2018-12-10T13:30:31.175Z,1.23
2018-12-10T13:32:59.858Z,0.27
2018-12-10T13:35:28.223Z,1.67
2018-12-10T13:37:56.588Z,0.87
2018-12-10T13:40:26.001Z,0.60
2018-12-10T13:42:54.375Z,1.17
2018-12-10T13:45:22.738Z,1.10
2018-12-10T13:47:51.101Z,0.90
2018-12-10T13:50:19.424Z,1.20
2018-12-10T13:52:47.894Z,0.93
2018-12-10T13:55:16.408Z,1.40
2018-12-10T13:57:44.751Z,1.10
2018-12-10T14:00:13.490Z,0.83
2018-12-10T14:02:41.915Z,0.50
2018-12-10T14:05:14.730Z,1.00
2018-12-10T14:07:47.946Z,0.70
2018-12-10T14:10:14.200Z,0.53
2018-12-10T14:12:42.572Z,1.20
2018-12-10T14:15:11.268Z,0.70
2018-12-10T14:17:40.662Z,1.33
2018-12-10T14:20:09.588Z,0.50
2018-12-10T14:22:38.822Z,1.00
2018-12-10T14:25:09.624Z,1.10
2018-12-10T14:27:38.444Z,1.03
2018-12-10T14:30:08.494Z,0.80
2018-12-10T14:32:41.123Z,1.20
2018-12-10T14:35:15.201Z,1.00
2018-12-10T14:37:46.454Z,1.30
2018-12-10T14:40:16.715Z,0.93
2018-12-10T14:42:52.763Z,0.67
2018-12-10T14:45:22.339Z,0.60
2018-12-10T14:47:56.614Z,1.00
2018-12-10T14:50:25.435Z,1.00
2018-12-10T14:52:53.887Z,0.70
2018-12-10T14:55:22.603Z,0.97
2018-12-10T14:57:51.579Z,1.00
2018-12-10T15:00:20.937Z,0.90
2018-12-10T15:02:50.061Z,1.17
2018-12-10T15:05:22.635Z,1.00
2018-12-10T15:07:52.280Z,1.00
2018-12-10T15:10:23.903Z,0.67
2018-12-10T15:13:01.636Z,0.60
2018-12-10T15:15:34.482Z,0.87
2018-12-10T15:18:04.181Z,0.83
2018-12-10T15:20:32.939Z,1.10
2018-12-10T15:23:02.459Z,0.77
2018-12-10T15:25:31.721Z,0.70
2018-12-10T15:28:08.516Z,0.60
2018-12-10T15:30:36.950Z,0.67
2018-12-10T15:33:06.867Z,0.50
2018-12-10T15:35:35.210Z,1.10
2018-12-10T15:38:04.992Z,0.83
2018-12-10T15:40:33.347Z,0.63
2018-12-10T15:43:01.846Z,1.00
2018-12-10T15:45:30.319Z,0.80
2018-12-10T15:47:58.701Z,1.20
2018-12-10T15:50:27.101Z,1.17
2018-12-10T15:52:56.024Z,0.80
2018-12-10T15:55:25.095Z,1.30
2018-12-10T15:57:56.056Z,1.20
2018-12-10T16:00:25.100Z,1.20
2018-12-10T16:02:53.926Z,1.47
2018-12-10T16:05:22.366Z,1.50
2018-12-10T16:07:51.100Z,1.83
2018-12-10T16:10:19.770Z,2.00
2018-12-10T16:12:53.493Z,1.33
2018-12-10T16:15:21.878Z,1.10
2018-12-10T16:17:51.698Z,1.30
2018-12-10T16:20:20.410Z,1.30
2018-12-10T16:22:48.844Z,1.00
2018-12-10T16:25:17.568Z,1.10
2018-12-10T16:27:46.400Z,1.20
2018-12-10T16:30:15.525Z,1.17
2018-12-10T16:32:43.948Z,1.83
2018-12-10T16:35:12.287Z,1.37
2018-12-10T16:37:41.456Z,1.90
2018-12-10T16:40:09.848Z,1.70
2018-12-10T16:42:39.106Z,1.23
2018-12-10T16:45:09.800Z,0.93
2018-12-10T16:47:38.390Z,1.00
2018-12-10T16:50:09.323Z,1.10
2018-12-10T16:52:39.515Z,1.27
2018-12-10T16:55:08.632Z,1.10
2018-12-10T16:57:38.253Z,1.13
2018-12-10T17:00:11.300Z,1.00
2018-12-10T17:02:40.541Z,1.10
2018-12-10T17:05:09.341Z,1.70
2018-12-10T17:07:38.595Z,0.70
2018-12-10T17:10:10.611Z,0.80
2018-12-10T17:12:40.701Z,0.63
2018-12-10T17:15:15.370Z,0.70
2018-12-10T17:17:43.750Z,0.70
2018-12-10T17:20:14.531Z,0.90
2018-12-10T17:22:43.499Z,1.10
2018-12-10T17:25:12.161Z,1.23
2018-12-10T17:27:46.270Z,1.10
2018-12-10T17:30:15.507Z,1.10
2018-12-10T17:32:43.907Z,1.07
2018-12-10T17:35:13.776Z,1.57
2018-12-10T17:37:42.166Z,1.40
2018-12-10T17:40:12.459Z,6.27
2018-12-10T17:42:41.954Z,10.53
2018-12-10T17:45:14.183Z,4.10
2018-12-10T17:47:44.304Z,2.50
2018-12-10T17:50:15.777Z,1.90
2018-12-10T17:52:44.718Z,1.80
2018-12-10T17:55:13.530Z,2.37
2018-12-10T17:57:42.314Z,2.33
2018-12-10T18:00:11.980Z,2.43
2018-12-10T18:02:40.344Z,2.53
2018-12-10T18:05:09.683Z,2.07
2018-12-10T18:07:38.110Z,2.03
2018-12-10T18:10:09.082Z,1.53
2018-12-10T18:12:37.480Z,1.73
2018-12-10T18:15:07.487Z,1.60
2018-12-10T18:17:36.490Z,2.13
2018-12-10T18:20:06.656Z,2.10
2018-12-10T18:22:35.219Z,2.53
2018-12-10T18:25:05.167Z,2.13
2018-12-10T18:27:34.284Z,1.87
2018-12-10T18:30:03.795Z,2.37
2018-12-10T18:32:32.817Z,2.57
2018-12-10T18:35:03.747Z,2.43
2018-12-10T18:37:33.040Z,2.40
2018-12-10T18:40:03.491Z,2.10
2018-12-10T18:42:34.077Z,1.90
2018-12-10T18:45:05.753Z,1.90
2018-12-10T18:47:36.251Z,1.33
2018-12-10T18:50:06.583Z,1.90
2018-12-10T18:52:36.977Z,1.90
2018-12-10T18:55:07.309Z,2.10
2018-12-10T18:57:37.183Z,1.87
2018-12-10T19:00:11.257Z,2.10
2018-12-10T19:05:14.350Z,2.00
2018-12-10T19:07:45.698Z,2.10
2018-12-10T19:10:14.452Z,1.70
2018-12-10T19:12:43.634Z,1.27
2018-12-10T19:15:12.634Z,1.77
2018-12-10T19:17:41.039Z,1.80
2018-12-10T19:20:13.663Z,1.83
2018-12-10T19:22:40.332Z,2.50
2018-12-10T19:25:12.455Z,3.47
2018-12-10T19:27:41.971Z,6.50
2018-12-10T19:30:10.980Z,3.83
2018-12-10T19:32:44.606Z,1.87
2018-12-10T19:35:13.639Z,1.50
2018-12-10T19:37:42.048Z,1.20
2018-12-10T19:40:10.691Z,1.10
2018-12-10T19:42:39.332Z,1.03
2018-12-10T19:45:10.152Z,1.40
2018-12-10T19:47:38.875Z,1.50
2018-12-10T19:50:09.461Z,1.80
2018-12-10T19:52:38.589Z,2.23
2018-12-10T19:55:07.658Z,3.50
2018-12-10T19:57:36.539Z,3.57
2018-12-10T20:00:06.553Z,2.67
2018-12-10T20:02:36.180Z,1.63
2018-12-10T20:05:06.013Z,2.37
2018-12-10T20:07:35.279Z,2.17
2018-12-10T20:10:04.887Z,2.00
2018-12-10T20:12:33.613Z,2.00
2018-12-10T20:15:02.729Z,1.90
2018-12-10T20:17:32.523Z,3.97
2018-12-10T20:20:00.899Z,3.23
2018-12-10T20:22:29.421Z,2.03
2018-12-10T20:24:58.036Z,1.90
2018-12-10T20:27:26.711Z,2.03
2018-12-10T20:29:56.096Z,1.47
2018-12-10T20:32:25.967Z,1.70
2018-12-10T20:34:55.635Z,1.47
2018-12-10T20:37:24.269Z,2.50
2018-12-10T20:39:52.623Z,1.50
2018-12-10T20:42:21.028Z,1.90
2018-12-10T20:44:49.414Z,1.53
2018-12-10T20:47:18.634Z,1.23
2018-12-10T20:49:47.224Z,2.13
2018-12-10T20:52:16.174Z,2.13
2018-12-10T20:54:44.560Z,2.53
2018-12-10T20:57:12.937Z,1.97
2018-12-10T20:59:41.348Z,1.77
2018-12-10T21:02:11.078Z,1.70
2018-12-10T21:04:39.475Z,1.90
2018-12-10T21:07:08.177Z,1.83
2018-12-10T21:09:42.136Z,2.00
2018-12-10T21:12:17.123Z,1.80
2018-12-10T21:14:46.369Z,1.70
2018-12-10T21:17:15.553Z,1.60
2018-12-10T21:19:44.947Z,1.93
2018-12-10T21:22:16.500Z,4.57
2018-12-10T21:24:45.839Z,3.90
2018-12-10T21:27:15.045Z,1.63
2018-12-10T21:29:45.146Z,2.70
2018-12-10T21:32:15.529Z,2.13
2018-12-10T21:34:43.866Z,1.63
2018-12-10T21:37:17.542Z,1.40
2018-12-10T21:39:46.756Z,1.50
2018-12-10T21:42:16.004Z,1.47
2018-12-10T21:44:44.396Z,1.17
2018-12-10T21:47:14.226Z,1.10
2018-12-10T21:49:47.526Z,1.50
2018-12-10T21:52:16.838Z,1.00
2018-12-10T21:54:45.658Z,1.83
2018-12-10T21:57:14.332Z,1.70
2018-12-10T21:59:44.682Z,1.30
2018-12-10T22:02:14.150Z,1.97
2018-12-10T22:04:43.210Z,1.80
2018-12-10T22:07:16.846Z,1.80
2018-12-10T22:09:45.464Z,1.80
2018-12-10T22:12:14.146Z,2.53
2018-12-10T22:14:43.371Z,1.73
2018-12-10T22:17:12.311Z,1.43
2018-12-10T22:19:41.239Z,2.03
2018-12-10T22:22:09.906Z,1.97
2018-12-10T22:24:39.875Z,2.50
2018-12-10T22:27:10.712Z,2.17
2018-12-10T22:29:40.487Z,2.50
2018-12-10T22:32:13.453Z,2.00
2018-12-10T22:34:42.311Z,2.00
2018-12-10T22:37:10.676Z,1.77
2018-12-10T22:39:40.161Z,1.87
2018-12-10T22:42:09.219Z,2.43
2018-12-10T22:44:38.967Z,2.87
2018-12-10T22:47:10.493Z,3.33
2018-12-10T22:49:41.751Z,2.83
2018-12-10T22:52:10.670Z,1.87
2018-12-10T22:54:40.737Z,2.67
2018-12-10T22:57:12.086Z,1.53
2018-12-10T22:59:43.815Z,1.87
2018-12-10T23:02:13.712Z,1.10
2018-12-10T23:04:42.108Z,1.50
2018-12-10T23:07:12.285Z,1.40
2018-12-10T23:09:41.006Z,1.73
2018-12-10T23:12:13.541Z,1.97
2018-12-10T23:14:44.719Z,1.70
2018-12-10T23:17:13.587Z,1.63
2018-12-10T23:19:48.112Z,1.50
2018-12-10T23:22:22.613Z,2.37
2018-12-10T23:24:52.544Z,1.90
2018-12-10T23:27:23.587Z,1.83
2018-12-10T23:29:51.987Z,1.60
2018-12-10T23:32:20.929Z,1.60
2018-12-10T23:34:51.013Z,1.47
2018-12-10T23:37:24.845Z,1.80
2018-12-10T23:39:53.702Z,1.60
2018-12-10T23:42:23.039Z,1.40
2018-12-10T23:44:54.410Z,1.70
2018-12-10T23:47:27.724Z,1.90
2018-12-10T23:49:59.639Z,2.13
2018-12-10T23:52:28.590Z,1.70
2018-12-10T23:54:57.254Z,1.40
2018-12-10T23:57:27.273Z,1.77
2018-12-10T23:59:57.358Z,1.63
